sensor_id;sensor_type;location;lat;lon;timestamp;pressure;altitude;pressure_sealevel;temperature;humidity
21361;BME280;10839;43.206;23.550;2022-11-04T00:01:45;97248.31;;;14.09;67.46
21361;BME280;10839;43.206;23.550;2022-11-04T00:04:14;97255.59;;;14.09;66.92
21361;BME280;10839;43.206;23.550;2022-11-04T00:06:40;97248.16;;;13.98;66.73
21361;BME280;10839;43.206;23.550;2022-11-04T00:09:09;97254.78;;;14.15;66.24
21361;BME280;10839;43.206;23.550;2022-11-04T00:11:35;97258.50;;;14.27;65.80
21361;BME280;10839;43.206;23.550;2022-11-04T00:14:20;97250.63;;;14.06;65.95
21361;BME280;10839;43.206;23.550;2022-11-04T00:16:46;97252.22;;;14.33;65.41
21361;BME280;10839;43.206;23.550;2022-11-04T00:19:30;97254.00;;;14.52;64.49
21361;BME280;10839;43.206;23.550;2022-11-04T00:22:15;97251.19;;;14.21;65.52
21361;BME280;10839;43.206;23.550;2022-11-04T00:24:59;97259.81;;;14.49;65.01
21361;BME280;10839;43.206;23.550;2022-11-04T00:27:44;97264.13;;;14.63;64.43
21361;BME280;10839;43.206;23.550;2022-11-04T00:30:28;97264.13;;;14.63;64.37
21361;BME280;10839;43.206;23.550;2022-11-04T00:32:54;97264.56;;;14.60;64.74
21361;BME280;10839;43.206;23.550;2022-11-04T00:35:39;97259.50;;;14.70;64.28
21361;BME280;10839;43.206;23.550;2022-11-04T00:38:04;97254.59;;;14.54;65.20
21361;BME280;10839;43.206;23.550;2022-11-04T00:40:30;97254.59;;;14.54;65.62
21361;BME280;10839;43.206;23.550;2022-11-04T00:42:56;97243.75;;;14.54;65.86
21361;BME280;10839;43.206;23.550;2022-11-04T00:45:23;97240.78;;;14.62;66.27
21361;BME280;10839;43.206;23.550;2022-11-04T00:47:49;97231.25;;;14.60;66.53
21361;BME280;10839;43.206;23.550;2022-11-04T00:50:14;97233.38;;;14.51;67.12
21361;BME280;10839;43.206;23.550;2022-11-04T00:52:40;97227.94;;;14.51;67.08
21361;BME280;10839;43.206;23.550;2022-11-04T00:55:07;97216.84;;;14.28;67.82
21361;BME280;10839;43.206;23.550;2022-11-04T00:57:33;97218.66;;;14.34;67.67
21361;BME280;10839;43.206;23.550;2022-11-04T00:59:59;97217.91;;;14.58;66.60
21361;BME280;10839;43.206;23.550;2022-11-04T01:02:25;97213.44;;;14.39;66.58
21361;BME280;10839;43.206;23.550;2022-11-04T01:04:51;97222.22;;;14.35;66.75
21361;BME280;10839;43.206;23.550;2022-11-04T01:07:16;97218.09;;;14.19;67.07
21361;BME280;10839;43.206;23.550;2022-11-04T01:09:42;97220.84;;;14.12;66.95
21361;BME280;10839;43.206;23.550;2022-11-04T01:12:08;97217.28;;;14.25;66.34
21361;BME280;10839;43.206;23.550;2022-11-04T01:14:34;97214.00;;;14.10;67.44
21361;BME280;10839;43.206;23.550;2022-11-04T01:17:00;97207.25;;;14.19;66.86
21361;BME280;10839;43.206;23.550;2022-11-04T01:19:26;97202.69;;;14.20;67.11
21361;BME280;10839;43.206;23.550;2022-11-04T01:21:52;97211.44;;;14.28;67.13
21361;BME280;10839;43.206;23.550;2022-11-04T01:24:18;97193.63;;;14.01;68.16
21361;BME280;10839;43.206;23.550;2022-11-04T01:26:44;97187.97;;;14.09;68.07
21361;BME280;10839;43.206;23.550;2022-11-04T01:29:10;97179.91;;;13.96;68.12
21361;BME280;10839;43.206;23.550;2022-11-04T01:31:36;97179.00;;;14.15;67.38
21361;BME280;10839;43.206;23.550;2022-11-04T01:34:02;97185.97;;;14.36;66.74
21361;BME280;10839;43.206;23.550;2022-11-04T01:36:28;97181.97;;;14.07;67.50
21361;BME280;10839;43.206;23.550;2022-11-04T01:38:55;97180.63;;;14.16;67.27
21361;BME280;10839;43.206;23.550;2022-11-04T01:41:30;97189.19;;;14.13;67.33
21361;BME280;10839;43.206;23.550;2022-11-04T01:46:42;97184.03;;;14.05;66.76
21361;BME280;10839;43.206;23.550;2022-11-04T01:49:32;97173.63;;;14.08;66.91
21361;BME280;10839;43.206;23.550;2022-11-04T01:52:12;97178.63;;;14.05;66.34
21361;BME280;10839;43.206;23.550;2022-11-04T01:54:40;97171.91;;;14.21;66.11
21361;BME280;10839;43.206;23.550;2022-11-04T01:57:10;97172.75;;;14.14;66.17
21361;BME280;10839;43.206;23.550;2022-11-04T01:59:40;97168.97;;;14.29;65.77
21361;BME280;10839;43.206;23.550;2022-11-04T02:02:06;97171.88;;;14.27;65.95
21361;BME280;10839;43.206;23.550;2022-11-04T02:04:32;97166.84;;;14.24;66.09
21361;BME280;10839;43.206;23.550;2022-11-04T02:07:03;97168.34;;;13.76;67.38
21361;BME280;10839;43.206;23.550;2022-11-04T02:09:32;97163.56;;;13.78;67.68
21361;BME280;10839;43.206;23.550;2022-11-04T02:11:59;97162.50;;;13.85;67.31
21361;BME280;10839;43.206;23.550;2022-11-04T02:15:03;97154.97;;;13.87;67.25
21361;BME280;10839;43.206;23.550;2022-11-04T02:17:36;97163.28;;;13.99;66.75
21361;BME280;10839;43.206;23.550;2022-11-04T02:23:11;97159.63;;;13.74;68.26
21361;BME280;10839;43.206;23.550;2022-11-04T02:25:53;97162.94;;;13.76;67.98
21361;BME280;10839;43.206;23.550;2022-11-04T02:31:09;97149.69;;;13.61;68.70
21361;BME280;10839;43.206;23.550;2022-11-04T02:33:51;97142.31;;;13.24;70.30
21361;BME280;10839;43.206;23.550;2022-11-04T02:36:30;97153.31;;;13.36;70.49
21361;BME280;10839;43.206;23.550;2022-11-04T02:39:11;97139.03;;;12.76;72.68
21361;BME280;10839;43.206;23.550;2022-11-04T02:44:36;97144.41;;;13.29;70.89
21361;BME280;10839;43.206;23.550;2022-11-04T02:47:06;97133.97;;;13.39;70.49
21361;BME280;10839;43.206;23.550;2022-11-04T02:49:54;97130.69;;;13.24;70.93
21361;BME280;10839;43.206;23.550;2022-11-04T02:52:38;97135.44;;;13.35;70.69
21361;BME280;10839;43.206;23.550;2022-11-04T02:55:13;97135.25;;;13.30;70.78
21361;BME280;10839;43.206;23.550;2022-11-04T02:57:41;97130.84;;;13.42;70.18
21361;BME280;10839;43.206;23.550;2022-11-04T03:00:12;97128.56;;;13.39;70.32
21361;BME280;10839;43.206;23.550;2022-11-04T03:02:44;97139.38;;;13.39;70.33
21361;BME280;10839;43.206;23.550;2022-11-04T03:05:18;97129.72;;;13.56;69.66
21361;BME280;10839;43.206;23.550;2022-11-04T03:07:46;97127.41;;;12.96;71.27
21361;BME280;10839;43.206;23.550;2022-11-04T03:10:20;97129.28;;;12.88;72.35
21361;BME280;10839;43.206;23.550;2022-11-04T03:12:53;97134.69;;;12.62;72.77
21361;BME280;10839;43.206;23.550;2022-11-04T03:15:26;97127.81;;;12.66;73.48
21361;BME280;10839;43.206;23.550;2022-11-04T03:20:35;97126.16;;;12.78;72.58
21361;BME280;10839;43.206;23.550;2022-11-04T03:23:03;97122.44;;;13.06;71.78
21361;BME280;10839;43.206;23.550;2022-11-04T03:25:36;97124.50;;;13.04;72.00
21361;BME280;10839;43.206;23.550;2022-11-04T03:28:22;97122.66;;;12.32;75.27
21361;BME280;10839;43.206;23.550;2022-11-04T03:30:53;97126.19;;;12.72;74.17
21361;BME280;10839;43.206;23.550;2022-11-04T03:36:01;97124.28;;;12.85;73.66
21361;BME280;10839;43.206;23.550;2022-11-04T03:38:29;97122.00;;;12.96;73.21
21361;BME280;10839;43.206;23.550;2022-11-04T03:40:57;97126.16;;;13.05;72.54
21361;BME280;10839;43.206;23.550;2022-11-04T03:43:25;97126.53;;;13.15;71.91
21361;BME280;10839;43.206;23.550;2022-11-04T03:45:53;97121.34;;;13.13;72.01
21361;BME280;10839;43.206;23.550;2022-11-04T03:48:19;97120.69;;;13.24;71.43
21361;BME280;10839;43.206;23.550;2022-11-04T03:50:47;97120.91;;;13.23;71.02
21361;BME280;10839;43.206;23.550;2022-11-04T03:53:22;97117.00;;;13.19;70.98
21361;BME280;10839;43.206;23.550;2022-11-04T03:56:07;97121.19;;;12.82;72.65
21361;BME280;10839;43.206;23.550;2022-11-04T04:03:59;97113.91;;;13.02;72.08
21361;BME280;10839;43.206;23.550;2022-11-04T04:06:31;97118.72;;;12.67;73.76
21361;BME280;10839;43.206;23.550;2022-11-04T04:09:10;97117.63;;;12.95;72.93
21361;BME280;10839;43.206;23.550;2022-11-04T04:11:46;97110.78;;;12.92;72.95
21361;BME280;10839;43.206;23.550;2022-11-04T04:17:31;97103.28;;;13.01;72.32
21361;BME280;10839;43.206;23.550;2022-11-04T04:20:21;97112.00;;;12.96;72.36
21361;BME280;10839;43.206;23.550;2022-11-04T04:22:54;97111.63;;;12.79;73.11
21361;BME280;10839;43.206;23.550;2022-11-04T04:25:23;97100.41;;;12.82;73.03
21361;BME280;10839;43.206;23.550;2022-11-04T04:28:09;97105.81;;;12.89;72.97
21361;BME280;10839;43.206;23.550;2022-11-04T04:30:39;97108.06;;;12.99;72.87
21361;BME280;10839;43.206;23.550;2022-11-04T04:33:12;97103.91;;;13.03;72.45
21361;BME280;10839;43.206;23.550;2022-11-04T04:35:45;97106.19;;;12.93;72.91
21361;BME280;10839;43.206;23.550;2022-11-04T04:38:23;97105.81;;;12.82;73.25
21361;BME280;10839;43.206;23.550;2022-11-04T04:41:18;97109.97;;;12.85;72.88
21361;BME280;10839;43.206;23.550;2022-11-04T04:44:11;97110.78;;;12.85;73.12
21361;BME280;10839;43.206;23.550;2022-11-04T04:46:58;97104.16;;;12.68;74.09
21361;BME280;10839;43.206;23.550;2022-11-04T04:49:26;97124.91;;;12.74;74.70
21361;BME280;10839;43.206;23.550;2022-11-04T04:52:01;97109.13;;;12.84;74.24
21361;BME280;10839;43.206;23.550;2022-11-04T04:54:27;97122.63;;;12.71;75.01
21361;BME280;10839;43.206;23.550;2022-11-04T04:56:53;97123.66;;;12.44;77.03
21361;BME280;10839;43.206;23.550;2022-11-04T04:59:19;97125.34;;;12.65;76.16
21361;BME280;10839;43.206;23.550;2022-11-04T05:01:45;97113.69;;;12.71;75.88
21361;BME280;10839;43.206;23.550;2022-11-04T05:04:11;97122.84;;;12.37;77.38
21361;BME280;10839;43.206;23.550;2022-11-04T05:06:37;97121.19;;;12.49;77.64
21361;BME280;10839;43.206;23.550;2022-11-04T05:09:03;97114.75;;;12.44;77.84
21361;BME280;10839;43.206;23.550;2022-11-04T05:11:29;97120.53;;;12.34;78.56
21361;BME280;10839;43.206;23.550;2022-11-04T05:13:55;97120.38;;;12.36;78.80
21361;BME280;10839;43.206;23.550;2022-11-04T05:16:21;97124.50;;;12.38;79.17
21361;BME280;10839;43.206;23.550;2022-11-04T05:18:46;97131.13;;;12.95;76.87
21361;BME280;10839;43.206;23.550;2022-11-04T05:21:14;97129.03;;;12.97;76.55
21361;BME280;10839;43.206;23.550;2022-11-04T05:23:40;97134.75;;;13.52;74.13
21361;BME280;10839;43.206;23.550;2022-11-04T05:26:06;97143.28;;;14.00;72.76
21361;BME280;10839;43.206;23.550;2022-11-04T05:28:32;97128.25;;;14.04;71.74
21361;BME280;10839;43.206;23.550;2022-11-04T05:31:02;97135.91;;;15.00;68.27
21361;BME280;10839;43.206;23.550;2022-11-04T05:33:29;97128.75;;;15.49;66.28
21361;BME280;10839;43.206;23.550;2022-11-04T05:35:54;97139.59;;;15.67;64.88
21361;BME280;10839;43.206;23.550;2022-11-04T05:38:29;97130.97;;;16.47;62.15
21361;BME280;10839;43.206;23.550;2022-11-04T05:40:57;97136.44;;;16.29;62.64
21361;BME280;10839;43.206;23.550;2022-11-04T05:43:23;97135.34;;;17.01;61.05
21361;BME280;10839;43.206;23.550;2022-11-04T05:45:49;97139.75;;;17.99;57.25
21361;BME280;10839;43.206;23.550;2022-11-04T05:48:15;97141.94;;;18.42;55.46
21361;BME280;10839;43.206;23.550;2022-11-04T05:50:41;97139.41;;;19.13;53.57
21361;BME280;10839;43.206;23.550;2022-11-04T05:53:07;97138.88;;;19.49;51.77
21361;BME280;10839;43.206;23.550;2022-11-04T05:55:33;97145.41;;;19.48;52.05
21361;BME280;10839;43.206;23.550;2022-11-04T05:57:59;97147.13;;;19.54;51.07
21361;BME280;10839;43.206;23.550;2022-11-04T06:00:26;97149.13;;;19.80;50.03
21361;BME280;10839;43.206;23.550;2022-11-04T06:02:53;97151.03;;;20.01;49.69
21361;BME280;10839;43.206;23.550;2022-11-04T06:05:22;97153.28;;;20.04;49.48
21361;BME280;10839;43.206;23.550;2022-11-04T06:07:48;97154.03;;;20.00;49.32
21361;BME280;10839;43.206;23.550;2022-11-04T06:10:14;97155.47;;;20.51;48.20
21361;BME280;10839;43.206;23.550;2022-11-04T06:12:40;97145.84;;;20.21;48.29
21361;BME280;10839;43.206;23.550;2022-11-04T06:15:06;97154.97;;;20.54;47.74
21361;BME280;10839;43.206;23.550;2022-11-04T06:17:33;97161.78;;;20.29;48.02
21361;BME280;10839;43.206;23.550;2022-11-04T06:19:58;97162.81;;;20.98;46.79
21361;BME280;10839;43.206;23.550;2022-11-04T06:22:24;97160.50;;;21.17;45.96
21361;BME280;10839;43.206;23.550;2022-11-04T06:24:50;97151.28;;;21.28;45.86
21361;BME280;10839;43.206;23.550;2022-11-04T06:27:16;97158.41;;;21.66;44.98
21361;BME280;10839;43.206;23.550;2022-11-04T06:29:42;97158.97;;;21.26;45.39
21361;BME280;10839;43.206;23.550;2022-11-04T06:32:12;97160.81;;;21.57;45.14
21361;BME280;10839;43.206;23.550;2022-11-04T06:34:39;97156.81;;;22.31;43.63
21361;BME280;10839;43.206;23.550;2022-11-04T06:37:06;97158.75;;;22.36;42.82
21361;BME280;10839;43.206;23.550;2022-11-04T06:39:32;97161.97;;;23.55;40.90
21361;BME280;10839;43.206;23.550;2022-11-04T06:41:59;97160.31;;;23.14;41.56
21361;BME280;10839;43.206;23.550;2022-11-04T06:44:25;97167.44;;;23.25;41.09
21361;BME280;10839;43.206;23.550;2022-11-04T06:46:52;97153.09;;;23.93;39.88
21361;BME280;10839;43.206;23.550;2022-11-04T06:49:20;97149.25;;;23.84;39.72
21361;BME280;10839;43.206;23.550;2022-11-04T06:52:00;97157.75;;;24.02;39.57
21361;BME280;10839;43.206;23.550;2022-11-04T06:54:27;97155.09;;;23.62;40.45
21361;BME280;10839;43.206;23.550;2022-11-04T06:56:53;97162.81;;;23.55;40.00
21361;BME280;10839;43.206;23.550;2022-11-04T06:59:19;97153.75;;;23.50;40.40
21361;BME280;10839;43.206;23.550;2022-11-04T07:01:46;97153.72;;;23.00;41.09
21361;BME280;10839;43.206;23.550;2022-11-04T07:04:13;97144.94;;;23.48;40.20
21361;BME280;10839;43.206;23.550;2022-11-04T07:06:43;97150.78;;;24.35;38.73
21361;BME280;10839;43.206;23.550;2022-11-04T07:09:11;97150.94;;;23.75;39.71
21361;BME280;10839;43.206;23.550;2022-11-04T07:11:37;97144.94;;;23.48;40.32
21361;BME280;10839;43.206;23.550;2022-11-04T07:14:03;97127.28;;;23.84;39.58
21361;BME280;10839;43.206;23.550;2022-11-04T07:16:29;97127.28;;;23.74;39.92
21361;BME280;10839;43.206;23.550;2022-11-04T07:18:56;97127.97;;;24.25;38.73
21361;BME280;10839;43.206;23.550;2022-11-04T07:21:22;97125.44;;;23.04;40.70
21361;BME280;10839;43.206;23.550;2022-11-04T07:23:48;97115.84;;;23.02;40.85
21361;BME280;10839;43.206;23.550;2022-11-04T07:26:14;97106.50;;;23.28;40.65
21361;BME280;10839;43.206;23.550;2022-11-04T07:28:40;97104.31;;;23.40;40.50
21361;BME280;10839;43.206;23.550;2022-11-04T07:31:07;97099.97;;;24.18;39.40
21361;BME280;10839;43.206;23.550;2022-11-04T07:33:35;97120.22;;;23.03;41.47
21361;BME280;10839;43.206;23.550;2022-11-04T07:36:06;97106.50;;;22.98;41.57
21361;BME280;10839;43.206;23.550;2022-11-04T07:38:33;97099.53;;;23.80;40.03
21361;BME280;10839;43.206;23.550;2022-11-04T07:40:59;97092.75;;;23.43;40.68
21361;BME280;10839;43.206;23.550;2022-11-04T07:43:27;97099.69;;;22.03;43.34
21361;BME280;10839;43.206;23.550;2022-11-04T07:46:14;97094.88;;;22.35;42.75
21361;BME280;10839;43.206;23.550;2022-11-04T07:48:41;97098.16;;;23.83;40.39
21361;BME280;10839;43.206;23.550;2022-11-04T07:51:10;97092.78;;;23.33;40.31
21361;BME280;10839;43.206;23.550;2022-11-04T07:53:37;97090.00;;;23.48;40.92
21361;BME280;10839;43.206;23.550;2022-11-04T07:56:07;97079.00;;;23.58;40.06
21361;BME280;10839;43.206;23.550;2022-11-04T07:58:36;97081.25;;;22.75;41.84
21361;BME280;10839;43.206;23.550;2022-11-04T08:01:10;97080.31;;;24.39;39.19
21361;BME280;10839;43.206;23.550;2022-11-04T08:03:36;97077.25;;;23.87;39.41
21361;BME280;10839;43.206;23.550;2022-11-04T08:06:05;97073.78;;;24.30;38.81
21361;BME280;10839;43.206;23.550;2022-11-04T08:08:32;97061.59;;;24.41;38.67
21361;BME280;10839;43.206;23.550;2022-11-04T08:11:08;97062.03;;;24.58;38.41
21361;BME280;10839;43.206;23.550;2022-11-04T08:13:36;97053.97;;;24.77;37.98
21361;BME280;10839;43.206;23.550;2022-11-04T08:16:04;97056.34;;;24.88;37.04
21361;BME280;10839;43.206;23.550;2022-11-04T08:18:31;97054.88;;;22.59;40.89
21361;BME280;10839;43.206;23.550;2022-11-04T08:20:57;97047.66;;;24.66;38.11
21361;BME280;10839;43.206;23.550;2022-11-04T08:23:23;97049.09;;;24.97;37.03
21361;BME280;10839;43.206;23.550;2022-11-04T08:25:49;97041.66;;;25.79;35.62
21361;BME280;10839;43.206;23.550;2022-11-04T08:28:15;97041.13;;;25.24;36.36
21361;BME280;10839;43.206;23.550;2022-11-04T08:33:31;97032.06;;;24.90;37.18
21361;BME280;10839;43.206;23.550;2022-11-04T08:36:03;97027.03;;;24.69;37.61
21361;BME280;10839;43.206;23.550;2022-11-04T08:38:29;97025.09;;;25.79;36.04
21361;BME280;10839;43.206;23.550;2022-11-04T08:40:59;97022.13;;;25.52;36.52
21361;BME280;10839;43.206;23.550;2022-11-04T08:43:25;97023.13;;;25.08;36.99
21361;BME280;10839;43.206;23.550;2022-11-04T08:45:52;97023.63;;;24.82;37.69
21361;BME280;10839;43.206;23.550;2022-11-04T08:48:18;97015.75;;;24.70;37.75
21361;BME280;10839;43.206;23.550;2022-11-04T08:50:48;97026.09;;;25.41;36.65
21361;BME280;10839;43.206;23.550;2022-11-04T08:53:14;97013.69;;;24.42;38.39
21361;BME280;10839;43.206;23.550;2022-11-04T08:55:40;97007.81;;;24.92;37.79
21361;BME280;10839;43.206;23.550;2022-11-04T08:58:06;97010.84;;;24.24;38.66
21361;BME280;10839;43.206;23.550;2022-11-04T09:00:32;97015.00;;;24.55;38.40
21361;BME280;10839;43.206;23.550;2022-11-04T09:02:58;97010.47;;;25.02;37.54
21361;BME280;10839;43.206;23.550;2022-11-04T09:05:25;96999.56;;;24.20;38.85
21361;BME280;10839;43.206;23.550;2022-11-04T09:07:51;96998.84;;;25.10;37.17
21361;BME280;10839;43.206;23.550;2022-11-04T09:10:17;96993.63;;;25.38;37.23
21361;BME280;10839;43.206;23.550;2022-11-04T09:12:44;96999.69;;;24.77;38.20
21361;BME280;10839;43.206;23.550;2022-11-04T09:15:10;96984.66;;;24.98;37.74
21361;BME280;10839;43.206;23.550;2022-11-04T09:17:36;96983.75;;;25.79;36.58
21361;BME280;10839;43.206;23.550;2022-11-04T09:20:03;96982.00;;;25.41;37.17
21361;BME280;10839;43.206;23.550;2022-11-04T09:22:30;96990.25;;;24.88;38.10
21361;BME280;10839;43.206;23.550;2022-11-04T09:24:56;96993.78;;;24.60;38.35
21361;BME280;10839;43.206;23.550;2022-11-04T09:27:23;96983.47;;;24.37;39.00
21361;BME280;10839;43.206;23.550;2022-11-04T09:29:49;96977.72;;;24.67;38.74
21361;BME280;10839;43.206;23.550;2022-11-04T09:32:15;96984.25;;;25.39;37.59
21361;BME280;10839;43.206;23.550;2022-11-04T09:34:41;96993.81;;;25.17;37.90
21361;BME280;10839;43.206;23.550;2022-11-04T09:37:07;96995.19;;;24.91;38.08
21361;BME280;10839;43.206;23.550;2022-11-04T09:39:33;96986.84;;;24.29;39.42
21361;BME280;10839;43.206;23.550;2022-11-04T09:45:13;96974.72;;;24.69;38.57
21361;BME280;10839;43.206;23.550;2022-11-04T09:47:45;96990.56;;;24.48;39.23
21361;BME280;10839;43.206;23.550;2022-11-04T09:50:26;96982.25;;;25.15;38.46
21361;BME280;10839;43.206;23.550;2022-11-04T09:53:06;96981.72;;;25.66;37.76
21361;BME280;10839;43.206;23.550;2022-11-04T09:55:53;96978.03;;;25.52;37.33
21361;BME280;10839;43.206;23.550;2022-11-04T09:58:20;96971.78;;;25.17;38.25
21361;BME280;10839;43.206;23.550;2022-11-04T10:11:51;96980.25;;;22.47;42.65
21361;BME280;10839;43.206;23.550;2022-11-04T10:17:45;96969.22;;;23.13;42.25
21361;BME280;10839;43.206;23.550;2022-11-04T10:20:27;96961.56;;;23.00;42.71
21361;BME280;10839;43.206;23.550;2022-11-04T10:23:01;96955.41;;;23.43;41.76
21361;BME280;10839;43.206;23.550;2022-11-04T10:25:48;96959.63;;;23.79;41.38
21361;BME280;10839;43.206;23.550;2022-11-04T10:28:17;96952.03;;;24.48;40.05
21361;BME280;10839;43.206;23.550;2022-11-04T10:30:46;96936.81;;;24.27;40.18
21361;BME280;10839;43.206;23.550;2022-11-04T10:33:40;96937.81;;;23.49;41.42
21361;BME280;10839;43.206;23.550;2022-11-04T10:36:09;96935.16;;;24.26;40.09
21361;BME280;10839;43.206;23.550;2022-11-04T10:38:39;96935.81;;;24.80;38.93
21361;BME280;10839;43.206;23.550;2022-11-04T10:43:46;96913.13;;;24.31;40.00
21361;BME280;10839;43.206;23.550;2022-11-04T10:52:08;96904.72;;;24.46;39.72
21361;BME280;10839;43.206;23.550;2022-11-04T10:54:46;96903.00;;;24.55;39.48
21361;BME280;10839;43.206;23.550;2022-11-04T10:57:17;96897.84;;;24.15;40.02
21361;BME280;10839;43.206;23.550;2022-11-04T10:59:52;96872.59;;;24.08;40.12
21361;BME280;10839;43.206;23.550;2022-11-04T11:05:22;96873.66;;;23.73;40.92
21361;BME280;10839;43.206;23.550;2022-11-04T11:07:51;96882.38;;;23.37;41.86
21361;BME280;10839;43.206;23.550;2022-11-04T11:10:23;96870.44;;;23.61;41.15
21361;BME280;10839;43.206;23.550;2022-11-04T11:17:51;96875.59;;;23.68;41.35
21361;BME280;10839;43.206;23.550;2022-11-04T11:20:20;96858.97;;;23.88;41.20
21361;BME280;10839;43.206;23.550;2022-11-04T11:22:48;96864.63;;;24.40;40.21
21361;BME280;10839;43.206;23.550;2022-11-04T11:25:35;96858.31;;;23.14;42.17
21361;BME280;10839;43.206;23.550;2022-11-04T11:28:19;96852.31;;;23.94;40.66
21361;BME280;10839;43.206;23.550;2022-11-04T11:36:37;96833.69;;;23.86;40.63
21361;BME280;10839;43.206;23.550;2022-11-04T11:41:33;96832.81;;;24.29;39.76
21361;BME280;10839;43.206;23.550;2022-11-04T11:44:06;96827.50;;;24.09;40.49
21361;BME280;10839;43.206;23.550;2022-11-04T11:46:49;96834.91;;;23.75;40.66
21361;BME280;10839;43.206;23.550;2022-11-04T11:49:28;96835.19;;;23.30;41.32
21361;BME280;10839;43.206;23.550;2022-11-04T11:52:17;96827.19;;;23.33;41.50
21361;BME280;10839;43.206;23.550;2022-11-04T11:54:53;96825.00;;;22.66;42.70
21361;BME280;10839;43.206;23.550;2022-11-04T12:00:17;96825.59;;;21.73;44.90
21361;BME280;10839;43.206;23.550;2022-11-04T12:03:09;96826.41;;;21.53;45.40
21361;BME280;10839;43.206;23.550;2022-11-04T12:05:46;96820.09;;;21.53;46.02
21361;BME280;10839;43.206;23.550;2022-11-04T12:11:14;96818.75;;;21.45;46.40
21361;BME280;10839;43.206;23.550;2022-11-04T12:13:48;96822.81;;;21.38;46.93
21361;BME280;10839;43.206;23.550;2022-11-04T12:16:33;96815.19;;;21.60;46.08
21361;BME280;10839;43.206;23.550;2022-11-04T12:19:12;96819.03;;;21.64;46.34
21361;BME280;10839;43.206;23.550;2022-11-04T12:25:02;96807.28;;;21.79;46.02
21361;BME280;10839;43.206;23.550;2022-11-04T12:30:33;96817.28;;;21.13;47.09
21361;BME280;10839;43.206;23.550;2022-11-04T12:33:18;96820.59;;;21.25;47.04
21361;BME280;10839;43.206;23.550;2022-11-04T12:44:31;96803.91;;;20.55;48.82
21361;BME280;10839;43.206;23.550;2022-11-04T12:58:43;96801.44;;;20.11;50.57
21361;BME280;10839;43.206;23.550;2022-11-04T13:01:24;96797.97;;;20.16;50.36
21361;BME280;10839;43.206;23.550;2022-11-04T13:04:00;96807.06;;;20.31;50.29
21361;BME280;10839;43.206;23.550;2022-11-04T13:12:11;96814.81;;;20.50;49.78
21361;BME280;10839;43.206;23.550;2022-11-04T13:17:16;96799.56;;;19.80;51.81
21361;BME280;10839;43.206;23.550;2022-11-04T13:19:51;96800.59;;;19.69;51.62
21361;BME280;10839;43.206;23.550;2022-11-04T13:22:24;96794.16;;;19.54;52.21
21361;BME280;10839;43.206;23.550;2022-11-04T13:27:25;96792.13;;;19.39;52.58
21361;BME280;10839;43.206;23.550;2022-11-04T13:36:00;96792.69;;;18.88;54.20
21361;BME280;10839;43.206;23.550;2022-11-04T13:38:35;96796.34;;;18.77;54.55
21361;BME280;10839;43.206;23.550;2022-11-04T13:44:02;96790.41;;;18.58;54.81
21361;BME280;10839;43.206;23.550;2022-11-04T13:46:32;96792.69;;;18.88;53.90
21361;BME280;10839;43.206;23.550;2022-11-04T13:51:47;96794.03;;;18.64;54.63
21361;BME280;10839;43.206;23.550;2022-11-04T13:54:39;96793.75;;;18.44;55.08
21361;BME280;10839;43.206;23.550;2022-11-04T13:57:19;96789.16;;;18.44;55.16
21361;BME280;10839;43.206;23.550;2022-11-04T14:18:32;96772.91;;;17.95;57.21
21361;BME280;10839;43.206;23.550;2022-11-04T14:21:03;96771.97;;;18.06;57.08
21361;BME280;10839;43.206;23.550;2022-11-04T14:23:31;96770.09;;;17.90;57.43
21361;BME280;10839;43.206;23.550;2022-11-04T14:26:00;96765.94;;;18.04;57.32
21361;BME280;10839;43.206;23.550;2022-11-04T14:28:28;96772.44;;;17.81;57.96
21361;BME280;10839;43.206;23.550;2022-11-04T14:33:40;96776.22;;;17.63;58.52
21361;BME280;10839;43.206;23.550;2022-11-04T14:46:39;96737.47;;;17.23;59.70
21361;BME280;10839;43.206;23.550;2022-11-04T14:49:08;96727.63;;;17.06;60.13
21361;BME280;10839;43.206;23.550;2022-11-04T14:51:48;96731.94;;;17.18;60.09
21361;BME280;10839;43.206;23.550;2022-11-04T14:54:21;96728.06;;;17.14;60.15
21361;BME280;10839;43.206;23.550;2022-11-04T14:56:49;96732.16;;;17.00;60.57
21361;BME280;10839;43.206;23.550;2022-11-04T14:59:25;96723.91;;;16.95;60.80
21361;BME280;10839;43.206;23.550;2022-11-04T15:01:52;96728.97;;;17.03;60.83
21361;BME280;10839;43.206;23.550;2022-11-04T15:04:25;96739.44;;;17.11;60.60
21361;BME280;10839;43.206;23.550;2022-11-04T15:06:56;96740.41;;;17.05;60.95
21361;BME280;10839;43.206;23.550;2022-11-04T15:09:26;96739.84;;;17.03;61.29
21361;BME280;10839;43.206;23.550;2022-11-04T15:12:12;96740.00;;;16.97;61.43
21361;BME280;10839;43.206;23.550;2022-11-04T15:14:58;96727.22;;;16.97;61.09
21361;BME280;10839;43.206;23.550;2022-11-04T15:17:28;96734.16;;;17.05;61.37
21361;BME280;10839;43.206;23.550;2022-11-04T15:19:57;96729.53;;;17.05;61.15
21361;BME280;10839;43.206;23.550;2022-11-04T15:22:26;96733.47;;;16.81;62.13
21361;BME280;10839;43.206;23.550;2022-11-04T15:24:52;96738.22;;;16.74;62.14
21361;BME280;10839;43.206;23.550;2022-11-04T15:27:24;96727.56;;;16.56;62.79
21361;BME280;10839;43.206;23.550;2022-11-04T15:29:53;96736.09;;;16.36;63.20
21361;BME280;10839;43.206;23.550;2022-11-04T15:32:19;96734.63;;;16.06;65.00
21361;BME280;10839;43.206;23.550;2022-11-04T15:34:45;96730.31;;;16.33;63.95
21361;BME280;10839;43.206;23.550;2022-11-04T15:37:12;96728.41;;;16.45;63.95
21361;BME280;10839;43.206;23.550;2022-11-04T15:39:43;96729.91;;;16.52;63.50
21361;BME280;10839;43.206;23.550;2022-11-04T15:42:17;96733.63;;;16.46;63.93
21361;BME280;10839;43.206;23.550;2022-11-04T15:45:37;96729.78;;;16.59;63.39
21361;BME280;10839;43.206;23.550;2022-11-04T15:51:19;96720.09;;;16.23;64.77